sensor_id;sensor_type;location;lat;lon;timestamp;pressure;altitude;pressure_sealevel;temperature;humidity
84308;BME280;74486;52.070;5.128;2024-02-16T00:02:12;101005.41;;;10.73;100.00
84308;BME280;74486;52.070;5.128;2024-02-16T00:04:38;101002.25;;;10.80;100.00
84308;BME280;74486;52.070;5.128;2024-02-16T00:07:03;101000.63;;;10.82;100.00
84308;BME280;74486;52.070;5.128;2024-02-16T00:09:29;101002.41;;;10.83;99.77
84308;BME280;74486;52.070;5.128;2024-02-16T00:11:56;101002.94;;;10.76;100.00
84308;BME280;74486;52.070;5.128;2024-02-16T00:14:21;100995.91;;;10.75;100.00
84308;BME280;74486;52.070;5.128;2024-02-16T00:16:55;100999.41;;;10.76;100.00
84308;BME280;74486;52.070;5.128;2024-02-16T00:19:21;101000.19;;;10.73;100.00
84308;BME280;74486;52.070;5.128;2024-02-16T00:21:46;100992.47;;;10.76;100.00
84308;BME280;74486;52.070;5.128;2024-02-16T00:24:12;101000.31;;;10.76;100.00
84308;BME280;74486;52.070;5.128;2024-02-16T00:26:37;100992.34;;;10.73;100.00
84308;BME280;74486;52.070;5.128;2024-02-16T00:29:04;100994.72;;;10.69;100.00
84308;BME280;74486;52.070;5.128;2024-02-16T00:31:29;100998.38;;;10.72;100.00
84308;BME280;74486;52.070;5.128;2024-02-16T00:33:55;100993.75;;;10.67;100.00
84308;BME280;74486;52.070;5.128;2024-02-16T00:36:20;100995.09;;;10.59;100.00
84308;BME280;74486;52.070;5.128;2024-02-16T00:38:46;100999.94;;;10.51;100.00
84308;BME280;74486;52.070;5.128;2024-02-16T00:41:17;101000.81;;;10.52;100.00
84308;BME280;74486;52.070;5.128;2024-02-16T00:43:42;100995.59;;;10.52;100.00
84308;BME280;74486;52.070;5.128;2024-02-16T00:46:09;101004.09;;;10.48;100.00
84308;BME280;74486;52.070;5.128;2024-02-16T00:48:35;100986.84;;;10.51;100.00
84308;BME280;74486;52.070;5.128;2024-02-16T00:51:00;100989.09;;;10.43;100.00
84308;BME280;74486;52.070;5.128;2024-02-16T00:53:25;100992.53;;;10.42;100.00
84308;BME280;74486;52.070;5.128;2024-02-16T00:55:51;100993.19;;;10.38;100.00
84308;BME280;74486;52.070;5.128;2024-02-16T00:58:16;100978.06;;;10.49;100.00
84308;BME280;74486;52.070;5.128;2024-02-16T01:00:42;100981.34;;;10.45;100.00
84308;BME280;74486;52.070;5.128;2024-02-16T01:03:09;100981.34;;;10.45;100.00
84308;BME280;74486;52.070;5.128;2024-02-16T01:05:34;100980.28;;;10.41;100.00
84308;BME280;74486;52.070;5.128;2024-02-16T01:08:00;100980.50;;;10.46;100.00
84308;BME280;74486;52.070;5.128;2024-02-16T01:10:25;100978.78;;;10.46;100.00
84308;BME280;74486;52.070;5.128;2024-02-16T01:12:51;100977.63;;;10.40;100.00
84308;BME280;74486;52.070;5.128;2024-02-16T01:15:16;100971.03;;;10.48;100.00
84308;BME280;74486;52.070;5.128;2024-02-16T01:17:42;100973.50;;;10.45;100.00
84308;BME280;74486;52.070;5.128;2024-02-16T01:20:09;100972.38;;;10.40;100.00
84308;BME280;74486;52.070;5.128;2024-02-16T01:22:35;100962.84;;;10.40;100.00
84308;BME280;74486;52.070;5.128;2024-02-16T01:25:00;100961.41;;;10.29;100.00
84308;BME280;74486;52.070;5.128;2024-02-16T01:27:26;100950.72;;;10.25;100.00
84308;BME280;74486;52.070;5.128;2024-02-16T01:29:51;100943.47;;;10.19;100.00
84308;BME280;74486;52.070;5.128;2024-02-16T01:32:17;100948.44;;;10.15;100.00
84308;BME280;74486;52.070;5.128;2024-02-16T01:34:42;100952.63;;;10.11;100.00
84308;BME280;74486;52.070;5.128;2024-02-16T01:37:09;100956.69;;;10.06;100.00
84308;BME280;74486;52.070;5.128;2024-02-16T01:39:34;100962.19;;;9.94;100.00
84308;BME280;74486;52.070;5.128;2024-02-16T01:42:00;100969.53;;;10.01;100.00
84308;BME280;74486;52.070;5.128;2024-02-16T01:44:25;100964.31;;;10.01;100.00
84308;BME280;74486;52.070;5.128;2024-02-16T01:46:51;100959.72;;;9.97;100.00
84308;BME280;74486;52.070;5.128;2024-02-16T01:49:16;100955.56;;;10.01;100.00
84308;BME280;74486;52.070;5.128;2024-02-16T01:51:42;100950.63;;;10.07;100.00
84308;BME280;74486;52.070;5.128;2024-02-16T01:54:10;100945.69;;;10.12;100.00
84308;BME280;74486;52.070;5.128;2024-02-16T01:56:36;100934.38;;;10.13;100.00
84308;BME280;74486;52.070;5.128;2024-02-16T01:59:01;100925.19;;;10.19;100.00
84308;BME280;74486;52.070;5.128;2024-02-16T02:01:27;100926.22;;;10.23;100.00
84308;BME280;74486;52.070;5.128;2024-02-16T02:03:52;100947.28;;;10.26;100.00
84308;BME280;74486;52.070;5.128;2024-02-16T02:06:18;100965.28;;;10.37;100.00
84308;BME280;74486;52.070;5.128;2024-02-16T02:08:43;100955.13;;;10.43;100.00
84308;BME280;74486;52.070;5.128;2024-02-16T02:11:10;100951.09;;;10.32;100.00
84308;BME280;74486;52.070;5.128;2024-02-16T02:13:35;100947.28;;;10.26;100.00
84308;BME280;74486;52.070;5.128;2024-02-16T02:16:02;100942.66;;;10.20;100.00
84308;BME280;74486;52.070;5.128;2024-02-16T02:18:28;100942.72;;;10.22;100.00
84308;BME280;74486;52.070;5.128;2024-02-16T02:20:53;100943.56;;;10.04;100.00
84308;BME280;74486;52.070;5.128;2024-02-16T02:23:20;100946.53;;;9.94;100.00
84308;BME280;74486;52.070;5.128;2024-02-16T02:25:45;100946.28;;;9.90;100.00
84308;BME280;74486;52.070;5.128;2024-02-16T02:28:11;100935.69;;;9.87;100.00
84308;BME280;74486;52.070;5.128;2024-02-16T02:30:36;100937.31;;;9.85;100.00
84308;BME280;74486;52.070;5.128;2024-02-16T02:33:02;100929.63;;;9.88;100.00
84308;BME280;74486;52.070;5.128;2024-02-16T02:35:27;100941.28;;;9.94;100.00
84308;BME280;74486;52.070;5.128;2024-02-16T02:37:53;100943.81;;;9.93;100.00
84308;BME280;74486;52.070;5.128;2024-02-16T02:40:20;100934.03;;;9.89;100.00
84308;BME280;74486;52.070;5.128;2024-02-16T02:42:45;100937.78;;;9.94;100.00
84308;BME280;74486;52.070;5.128;2024-02-16T02:45:10;100922.13;;;9.94;100.00
84308;BME280;74486;52.070;5.128;2024-02-16T02:47:36;100916.09;;;9.95;100.00
84308;BME280;74486;52.070;5.128;2024-02-16T02:50:01;100917.06;;;9.97;100.00
84308;BME280;74486;52.070;5.128;2024-02-16T02:52:27;100916.81;;;9.92;100.00
84308;BME280;74486;52.070;5.128;2024-02-16T02:54:52;100920.38;;;9.77;100.00
84308;BME280;74486;52.070;5.128;2024-02-16T02:57:19;100914.97;;;9.74;100.00
84308;BME280;74486;52.070;5.128;2024-02-16T02:59:45;100914.75;;;9.69;100.00
84308;BME280;74486;52.070;5.128;2024-02-16T03:02:10;100919.97;;;9.69;100.00
84308;BME280;74486;52.070;5.128;2024-02-16T03:04:35;100917.78;;;9.60;100.00
84308;BME280;74486;52.070;5.128;2024-02-16T03:07:01;100913.13;;;9.71;100.00
84308;BME280;74486;52.070;5.128;2024-02-16T03:09:26;100912.72;;;9.64;100.00
84308;BME280;74486;52.070;5.128;2024-02-16T03:11:52;100911.56;;;9.58;100.00
84308;BME280;74486;52.070;5.128;2024-02-16T03:14:19;100899.66;;;9.64;100.00
84308;BME280;74486;52.070;5.128;2024-02-16T03:16:44;100901.09;;;9.57;100.00
84308;BME280;74486;52.070;5.128;2024-02-16T03:19:09;100906.22;;;9.55;100.00
84308;BME280;74486;52.070;5.128;2024-02-16T03:21:35;100901.00;;;9.55;100.00
84308;BME280;74486;52.070;5.128;2024-02-16T03:24:01;100901.75;;;9.53;100.00
84308;BME280;74486;52.070;5.128;2024-02-16T03:26:26;100904.84;;;9.46;100.00
84308;BME280;74486;52.070;5.128;2024-02-16T03:28:51;100907.59;;;9.49;100.00
84308;BME280;74486;52.070;5.128;2024-02-16T03:31:19;100903.03;;;9.45;100.00
84308;BME280;74486;52.070;5.128;2024-02-16T03:33:45;100896.28;;;9.48;100.00
84308;BME280;74486;52.070;5.128;2024-02-16T03:36:10;100900.19;;;9.56;100.00
84308;BME280;74486;52.070;5.128;2024-02-16T03:38:36;100900.66;;;9.49;100.00
84308;BME280;74486;52.070;5.128;2024-02-16T03:41:01;100901.31;;;9.45;100.00
84308;BME280;74486;52.070;5.128;2024-02-16T03:43:27;100897.16;;;9.49;100.00
84308;BME280;74486;52.070;5.128;2024-02-16T03:45:52;100901.88;;;9.56;100.00
84308;BME280;74486;52.070;5.128;2024-02-16T03:48:19;100898.63;;;9.60;100.00
84308;BME280;74486;52.070;5.128;2024-02-16T03:50:44;100900.00;;;9.70;100.00
84308;BME280;74486;52.070;5.128;2024-02-16T03:53:11;100907.66;;;9.67;100.00
84308;BME280;74486;52.070;5.128;2024-02-16T03:55:36;100899.84;;;9.67;100.00
84308;BME280;74486;52.070;5.128;2024-02-16T03:58:02;100911.00;;;9.64;100.00
84308;BME280;74486;52.070;5.128;2024-02-16T04:00:27;100898.84;;;9.65;100.00
84308;BME280;74486;52.070;5.128;2024-02-16T04:02:52;100911.84;;;9.63;100.00
84308;BME280;74486;52.070;5.128;2024-02-16T04:05:19;100906.88;;;9.68;100.00
84308;BME280;74486;52.070;5.128;2024-02-16T04:07:45;100902.44;;;9.67;100.00
84308;BME280;74486;52.070;5.128;2024-02-16T04:10:10;100905.06;;;9.67;100.00
84308;BME280;74486;52.070;5.128;2024-02-16T04:12:36;100902.44;;;9.67;100.00
84308;BME280;74486;52.070;5.128;2024-02-16T04:15:01;100902.44;;;9.67;100.00
84308;BME280;74486;52.070;5.128;2024-02-16T04:17:27;100900.84;;;9.52;100.00
84308;BME280;74486;52.070;5.128;2024-02-16T04:19:52;100908.69;;;9.52;100.00
84308;BME280;74486;52.070;5.128;2024-02-16T04:22:19;100902.13;;;9.44;100.00
84308;BME280;74486;52.070;5.128;2024-02-16T04:24:44;100903.56;;;9.38;100.00
84308;BME280;74486;52.070;5.128;2024-02-16T04:27:10;100907.97;;;9.39;100.00
84308;BME280;74486;52.070;5.128;2024-02-16T04:29:35;100913.66;;;9.32;100.00
84308;BME280;74486;52.070;5.128;2024-02-16T04:32:01;100906.88;;;9.35;100.00
84308;BME280;74486;52.070;5.128;2024-02-16T04:34:26;100914.31;;;9.28;100.00
84308;BME280;74486;52.070;5.128;2024-02-16T04:36:51;100910.22;;;9.33;100.00
84308;BME280;74486;52.070;5.128;2024-02-16T04:39:18;100913.50;;;9.29;100.00
84308;BME280;74486;52.070;5.128;2024-02-16T04:41:44;100918.22;;;9.36;100.00
84308;BME280;74486;52.070;5.128;2024-02-16T04:44:09;100906.16;;;9.38;100.00
84308;BME280;74486;52.070;5.128;2024-02-16T04:46:34;100902.09;;;9.27;100.00
84308;BME280;74486;52.070;5.128;2024-02-16T04:49:00;100905.75;;;9.30;100.00
84308;BME280;74486;52.070;5.128;2024-02-16T04:51:25;100914.06;;;9.23;100.00
84308;BME280;74486;52.070;5.128;2024-02-16T04:53:51;100911.69;;;9.11;100.00
84308;BME280;74486;52.070;5.128;2024-02-16T04:56:18;100920.66;;;9.16;100.00
84308;BME280;74486;52.070;5.128;2024-02-16T04:58:43;100916.66;;;9.07;100.00
84308;BME280;74486;52.070;5.128;2024-02-16T05:01:09;100914.94;;;9.07;100.00
84308;BME280;74486;52.070;5.128;2024-02-16T05:03:34;100917.72;;;9.10;100.00
84308;BME280;74486;52.070;5.128;2024-02-16T05:06:00;100918.56;;;9.09;100.00
84308;BME280;74486;52.070;5.128;2024-02-16T05:08:25;100911.13;;;9.17;100.00
84308;BME280;74486;52.070;5.128;2024-02-16T05:10:50;100907.44;;;9.30;100.00
84308;BME280;74486;52.070;5.128;2024-02-16T05:13:17;100910.81;;;9.27;100.00
84308;BME280;74486;52.070;5.128;2024-02-16T05:15:43;100909.34;;;9.32;100.00
84308;BME280;74486;52.070;5.128;2024-02-16T05:18:08;100911.69;;;9.28;100.00
84308;BME280;74486;52.070;5.128;2024-02-16T05:20:33;100902.88;;;9.42;100.00
84308;BME280;74486;52.070;5.128;2024-02-16T05:22:59;100902.88;;;9.42;100.00
84308;BME280;74486;52.070;5.128;2024-02-16T05:25:24;100895.47;;;9.33;100.00
84308;BME280;74486;52.070;5.128;2024-02-16T05:27:50;100892.22;;;9.37;100.00
84308;BME280;74486;52.070;5.128;2024-02-16T05:30:16;100893.75;;;9.50;100.00
84308;BME280;74486;52.070;5.128;2024-02-16T05:32:42;100892.50;;;9.59;100.00
84308;BME280;74486;52.070;5.128;2024-02-16T05:35:08;100898.75;;;9.79;100.00
84308;BME280;74486;52.070;5.128;2024-02-16T05:37:34;100896.88;;;9.77;100.00
84308;BME280;74486;52.070;5.128;2024-02-16T05:39:59;100908.88;;;9.73;100.00
84308;BME280;74486;52.070;5.128;2024-02-16T05:42:25;100911.56;;;9.75;100.00
84308;BME280;74486;52.070;5.128;2024-02-16T05:44:50;100907.03;;;9.88;100.00
84308;BME280;74486;52.070;5.128;2024-02-16T05:47:17;100906.75;;;9.82;100.00
84308;BME280;74486;52.070;5.128;2024-02-16T05:49:42;100893.97;;;9.88;100.00
84308;BME280;74486;52.070;5.128;2024-02-16T05:52:10;100898.19;;;10.02;100.00
84308;BME280;74486;52.070;5.128;2024-02-16T05:54:35;100898.13;;;10.01;100.00
84308;BME280;74486;52.070;5.128;2024-02-16T05:57:01;100889.63;;;10.05;100.00
84308;BME280;74486;52.070;5.128;2024-02-16T05:59:26;100898.84;;;9.98;100.00
84308;BME280;74486;52.070;5.128;2024-02-16T06:01:52;100895.50;;;10.01;100.00
84308;BME280;74486;52.070;5.128;2024-02-16T06:04:18;100894.97;;;10.08;100.00
84308;BME280;74486;52.070;5.128;2024-02-16T06:06:44;100899.31;;;10.08;100.00
84308;BME280;74486;52.070;5.128;2024-02-16T06:09:09;100910.06;;;10.14;100.00
84308;BME280;74486;52.070;5.128;2024-02-16T06:11:36;100908.03;;;10.08;100.00
84308;BME280;74486;52.070;5.128;2024-02-16T06:14:02;100911.47;;;10.07;100.00
84308;BME280;74486;52.070;5.128;2024-02-16T06:16:27;100918.66;;;10.11;100.00
84308;BME280;74486;52.070;5.128;2024-02-16T06:18:52;100912.69;;;10.14;100.00
84308;BME280;74486;52.070;5.128;2024-02-16T06:21:19;100930.41;;;10.37;100.00
84308;BME280;74486;52.070;5.128;2024-02-16T06:23:45;100930.22;;;10.50;100.00
84308;BME280;74486;52.070;5.128;2024-02-16T06:26:10;100939.59;;;10.64;100.00
84308;BME280;74486;52.070;5.128;2024-02-16T06:28:35;100933.19;;;10.58;100.00
84308;BME280;74486;52.070;5.128;2024-02-16T06:31:01;100933.91;;;10.73;99.26
84308;BME280;74486;52.070;5.128;2024-02-16T06:33:26;100933.63;;;10.67;100.00
84308;BME280;74486;52.070;5.128;2024-02-16T06:35:52;100937.22;;;10.69;100.00
84308;BME280;74486;52.070;5.128;2024-02-16T06:38:18;100941.44;;;10.84;99.09
84308;BME280;74486;52.070;5.128;2024-02-16T06:40:44;100943.78;;;10.78;99.48
84308;BME280;74486;52.070;5.128;2024-02-16T06:43:09;100948.09;;;10.78;99.78
84308;BME280;74486;52.070;5.128;2024-02-16T06:45:35;100950.13;;;10.83;99.48
84308;BME280;74486;52.070;5.128;2024-02-16T06:48:00;100953.41;;;10.79;99.18
84308;BME280;74486;52.070;5.128;2024-02-16T06:50:26;100950.16;;;10.85;99.08
84308;BME280;74486;52.070;5.128;2024-02-16T06:52:51;100951.66;;;10.80;99.62
84308;BME280;74486;52.070;5.128;2024-02-16T06:55:18;100942.63;;;10.91;98.82
84308;BME280;74486;52.070;5.128;2024-02-16T06:57:43;100950.59;;;10.94;98.54
84308;BME280;74486;52.070;5.128;2024-02-16T07:00:10;100965.94;;;10.86;99.49
84308;BME280;74486;52.070;5.128;2024-02-16T07:02:35;100969.81;;;10.95;99.02
84308;BME280;74486;52.070;5.128;2024-02-16T07:05:01;100958.31;;;10.91;99.54
84308;BME280;74486;52.070;5.128;2024-02-16T07:07:26;100958.00;;;11.03;98.43
84308;BME280;74486;52.070;5.128;2024-02-16T07:09:52;100968.81;;;11.10;98.14
84308;BME280;74486;52.070;5.128;2024-02-16T07:12:18;100979.06;;;11.06;98.77
84308;BME280;74486;52.070;5.128;2024-02-16T07:14:44;100975.25;;;11.17;98.09
84308;BME280;74486;52.070;5.128;2024-02-16T07:17:09;100974.06;;;11.29;96.87
84308;BME280;74486;52.070;5.128;2024-02-16T07:19:35;100970.84;;;11.35;96.84
84308;BME280;74486;52.070;5.128;2024-02-16T07:22:00;100979.88;;;11.42;96.47
84308;BME280;74486;52.070;5.128;2024-02-16T07:24:26;100980.50;;;11.36;96.82
84308;BME280;74486;52.070;5.128;2024-02-16T07:26:51;100984.63;;;11.31;97.61
84308;BME280;74486;52.070;5.128;2024-02-16T07:29:18;100975.94;;;11.32;97.49
84308;BME280;74486;52.070;5.128;2024-02-16T07:31:44;100987.53;;;11.37;97.10
84308;BME280;74486;52.070;5.128;2024-02-16T07:34:09;100990.97;;;11.36;97.93
84308;BME280;74486;52.070;5.128;2024-02-16T07:36:34;100988.47;;;11.39;97.40
84308;BME280;74486;52.070;5.128;2024-02-16T07:39:00;100996.41;;;11.41;97.08
84308;BME280;74486;52.070;5.128;2024-02-16T07:41:25;101003.44;;;11.42;97.53
84308;BME280;74486;52.070;5.128;2024-02-16T07:43:51;101015.69;;;11.43;97.59
84308;BME280;74486;52.070;5.128;2024-02-16T07:46:18;101014.53;;;11.55;96.87
84308;BME280;74486;52.070;5.128;2024-02-16T07:48:43;101014.63;;;11.57;96.66
84308;BME280;74486;52.070;5.128;2024-02-16T07:51:08;101036.19;;;11.51;97.45
84308;BME280;74486;52.070;5.128;2024-02-16T07:53:34;101027.25;;;11.48;97.55
84308;BME280;74486;52.070;5.128;2024-02-16T07:55:59;101033.47;;;11.50;97.35
84308;BME280;74486;52.070;5.128;2024-02-16T07:58:25;101028.31;;;11.51;97.61
84308;BME280;74486;52.070;5.128;2024-02-16T08:00:50;101046.69;;;11.53;97.61
84308;BME280;74486;52.070;5.128;2024-02-16T08:03:17;101035.22;;;11.68;96.87
84308;BME280;74486;52.070;5.128;2024-02-16T08:05:42;101037.63;;;11.64;97.63
84308;BME280;74486;52.070;5.128;2024-02-16T08:08:08;101038.44;;;11.63;98.08
84308;BME280;74486;52.070;5.128;2024-02-16T08:10:33;101043.06;;;11.68;97.51
84308;BME280;74486;52.070;5.128;2024-02-16T08:12:59;101045.94;;;11.73;96.90
84308;BME280;74486;52.070;5.128;2024-02-16T08:15:25;101049.56;;;11.76;96.88
84308;BME280;74486;52.070;5.128;2024-02-16T08:17:50;101046.09;;;11.76;97.32
84308;BME280;74486;52.070;5.128;2024-02-16T08:20:17;101049.81;;;11.81;97.23
84308;BME280;74486;52.070;5.128;2024-02-16T08:22:42;101052.84;;;11.90;96.71
84308;BME280;74486;52.070;5.128;2024-02-16T08:25:08;101052.47;;;12.02;95.92
84308;BME280;74486;52.070;5.128;2024-02-16T08:27:34;101056.00;;;12.02;96.15
84308;BME280;74486;52.070;5.128;2024-02-16T08:29:59;101051.03;;;12.08;95.73
84308;BME280;74486;52.070;5.128;2024-02-16T08:32:25;101059.84;;;12.10;95.99
84308;BME280;74486;52.070;5.128;2024-02-16T08:34:50;101058.41;;;12.17;95.90
84308;BME280;74486;52.070;5.128;2024-02-16T08:37:17;101060.47;;;12.24;95.33
84308;BME280;74486;52.070;5.128;2024-02-16T08:39:43;101063.28;;;12.29;95.85
84308;BME280;74486;52.070;5.128;2024-02-16T08:42:08;101061.69;;;12.32;95.39
84308;BME280;74486;52.070;5.128;2024-02-16T08:44:33;101063.69;;;12.38;95.52
84308;BME280;74486;52.070;5.128;2024-02-16T08:46:59;101069.66;;;12.35;97.19
84308;BME280;74486;52.070;5.128;2024-02-16T08:49:24;101062.38;;;12.28;97.72
84308;BME280;74486;52.070;5.128;2024-02-16T08:51:50;101072.59;;;12.22;99.25
84308;BME280;74486;52.070;5.128;2024-02-16T08:54:17;101084.06;;;12.24;98.69
84308;BME280;74486;52.070;5.128;2024-02-16T08:56:42;101076.13;;;12.23;98.66
84308;BME280;74486;52.070;5.128;2024-02-16T08:59:08;101082.19;;;12.22;98.73
84308;BME280;74486;52.070;5.128;2024-02-16T09:01:34;101083.91;;;12.21;98.94
84308;BME280;74486;52.070;5.128;2024-02-16T09:04:00;101076.41;;;12.29;98.38
84308;BME280;74486;52.070;5.128;2024-02-16T09:06:25;101087.63;;;12.26;98.88
84308;BME280;74486;52.070;5.128;2024-02-16T09:08:51;101094.34;;;12.19;99.28
84308;BME280;74486;52.070;5.128;2024-02-16T09:11:18;101103.03;;;12.18;100.00
84308;BME280;74486;52.070;5.128;2024-02-16T09:13:43;101117.97;;;12.02;100.00
84308;BME280;74486;52.070;5.128;2024-02-16T09:16:09;101127.13;;;11.92;100.00
84308;BME280;74486;52.070;5.128;2024-02-16T09:18:34;101135.41;;;11.82;100.00
84308;BME280;74486;52.070;5.128;2024-02-16T09:21:00;101141.47;;;11.81;100.00
84308;BME280;74486;52.070;5.128;2024-02-16T09:23:26;101147.53;;;11.80;100.00
84308;BME280;74486;52.070;5.128;2024-02-16T09:25:51;101147.66;;;11.83;100.00
84308;BME280;74486;52.070;5.128;2024-02-16T09:28:18;101158.53;;;11.91;100.00
84308;BME280;74486;52.070;5.128;2024-02-16T09:30:44;101162.91;;;11.92;100.00
84308;BME280;74486;52.070;5.128;2024-02-16T09:33:09;101153.63;;;11.98;100.00
84308;BME280;74486;52.070;5.128;2024-02-16T09:35:35;101170.38;;;12.02;100.00
84308;BME280;74486;52.070;5.128;2024-02-16T09:38:00;101165.34;;;12.06;100.00
84308;BME280;74486;52.070;5.128;2024-02-16T09:40:26;101167.84;;;12.03;100.00
84308;BME280;74486;52.070;5.128;2024-02-16T09:42:52;101169.69;;;12.06;100.00
84308;BME280;74486;52.070;5.128;2024-02-16T09:45:18;101165.72;;;12.14;100.00
84308;BME280;74486;52.070;5.128;2024-02-16T09:47:45;101189.13;;;12.11;100.00
84308;BME280;74486;52.070;5.128;2024-02-16T09:50:11;101189.31;;;12.14;100.00
84308;BME280;74486;52.070;5.128;2024-02-16T09:52:37;101197.69;;;12.07;100.00
84308;BME280;74486;52.070;5.128;2024-02-16T09:55:05;101201.97;;;12.05;100.00
84308;BME280;74486;52.070;5.128;2024-02-16T09:57:32;101195.63;;;12.00;100.00
84308;BME280;74486;52.070;5.128;2024-02-16T09:59:57;101211.34;;;11.82;100.00
84308;BME280;74486;52.070;5.128;2024-02-16T10:02:24;101209.34;;;11.76;100.00
84308;BME280;74486;52.070;5.128;2024-02-16T10:04:49;101210.22;;;11.77;100.00
84308;BME280;74486;52.070;5.128;2024-02-16T10:07:15;101211.66;;;11.70;100.00
84308;BME280;74486;52.070;5.128;2024-02-16T10:09:40;101231.38;;;11.64;100.00
84308;BME280;74486;52.070;5.128;2024-02-16T10:12:06;101244.13;;;11.56;100.00
84308;BME280;74486;52.070;5.128;2024-02-16T10:14:32;101243.91;;;11.52;100.00
84308;BME280;74486;52.070;5.128;2024-02-16T10:17:01;101243.66;;;11.47;100.00
84308;BME280;74486;52.070;5.128;2024-02-16T10:19:28;101255.84;;;11.47;100.00
84308;BME280;74486;52.070;5.128;2024-02-16T10:21:54;101256.66;;;11.46;100.00
84308;BME280;74486;52.070;5.128;2024-02-16T10:24:21;101258.25;;;11.42;100.00
84308;BME280;74486;52.070;5.128;2024-02-16T10:26:47;101268.72;;;11.42;100.00
84308;BME280;74486;52.070;5.128;2024-02-16T10:29:17;101282.44;;;11.38;100.00
84308;BME280;74486;52.070;5.128;2024-02-16T10:31:43;101289.09;;;11.31;100.00
84308;BME280;74486;52.070;5.128;2024-02-16T10:34:10;101288.44;;;11.36;100.00
84308;BME280;74486;52.070;5.128;2024-02-16T10:36:38;101303.25;;;11.35;100.00
84308;BME280;74486;52.070;5.128;2024-02-16T10:39:04;101320.41;;;11.30;100.00
84308;BME280;74486;52.070;5.128;2024-02-16T10:41:33;101320.41;;;11.30;100.00
84308;BME280;74486;52.070;5.128;2024-02-16T10:43:59;101316.00;;;11.29;100.00
84308;BME280;74486;52.070;5.128;2024-02-16T10:46:24;101309.88;;;11.28;100.00
84308;BME280;74486;52.070;5.128;2024-02-16T10:48:50;101329.03;;;11.27;100.00
84308;BME280;74486;52.070;5.128;2024-02-16T10:51:18;101326.22;;;11.24;100.00
84308;BME280;74486;52.070;5.128;2024-02-16T10:53:46;101337.28;;;11.19;100.00
84308;BME280;74486;52.070;5.128;2024-02-16T10:56:13;101338.84;;;11.15;100.00
84308;BME280;74486;52.070;5.128;2024-02-16T10:58:38;101342.44;;;11.17;100.00
84308;BME280;74486;52.070;5.128;2024-02-16T11:01:08;101334.09;;;11.24;100.00
84308;BME280;74486;52.070;5.128;2024-02-16T11:03:38;101330.75;;;11.27;100.00
84308;BME280;74486;52.070;5.128;2024-02-16T11:06:14;101337.50;;;11.23;100.00
84308;BME280;74486;52.070;5.128;2024-02-16T11:08:39;101334.41;;;11.30;100.00
84308;BME280;74486;52.070;5.128;2024-02-16T11:11:06;101345.88;;;11.32;100.00
84308;BME280;74486;52.070;5.128;2024-02-16T11:13:32;101344.22;;;11.34;100.00
84308;BME280;74486;52.070;5.128;2024-02-16T11:15:59;101355.25;;;11.29;100.00
84308;BME280;74486;52.070;5.128;2024-02-16T11:18:25;101358.06;;;11.32;100.00
84308;BME280;74486;52.070;5.128;2024-02-16T11:20:51;101351.91;;;11.31;100.00
84308;BME280;74486;52.070;5.128;2024-02-16T11:23:17;101357.16;;;11.31;100.00
84308;BME280;74486;52.070;5.128;2024-02-16T11:25:50;101353.41;;;11.26;100.00
84308;BME280;74486;52.070;5.128;2024-02-16T11:28:17;101345.69;;;11.29;100.00
84308;BME280;74486;52.070;5.128;2024-02-16T11:30:43;101346.44;;;11.27;100.00
84308;BME280;74486;52.070;5.128;2024-02-16T11:33:10;101358.97;;;11.32;100.00
84308;BME280;74486;52.070;5.128;2024-02-16T11:35:35;101348.88;;;11.40;100.00
84308;BME280;74486;52.070;5.128;2024-02-16T11:38:01;101375.75;;;11.38;100.00
84308;BME280;74486;52.070;5.128;2024-02-16T11:40:26;101382.09;;;11.41;100.00
84308;BME280;74486;52.070;5.128;2024-02-16T11:42:58;101391.91;;;11.45;100.00
84308;BME280;74486;52.070;5.128;2024-02-16T11:45:25;101400.97;;;11.36;100.00
84308;BME280;74486;52.070;5.128;2024-02-16T11:47:50;101406.31;;;11.37;100.00
84308;BME280;74486;52.070;5.128;2024-02-16T11:50:17;101413.41;;;11.40;100.00
84308;BME280;74486;52.070;5.128;2024-02-16T11:52:43;101411.78;;;11.42;100.00
84308;BME280;74486;52.070;5.128;2024-02-16T11:55:09;101423.78;;;11.38;100.00
84308;BME280;74486;52.070;5.128;2024-02-16T11:57:35;101427.97;;;11.34;100.00
84308;BME280;74486;52.070;5.128;2024-02-16T12:00:01;101427.88;;;11.33;100.00
84308;BME280;74486;52.070;5.128;2024-02-16T12:02:28;101424.78;;;11.24;100.00
84308;BME280;74486;52.070;5.128;2024-02-16T12:05:03;101434.19;;;11.20;100.00
84308;BME280;74486;52.070;5.128;2024-02-16T12:07:29;101438.69;;;11.23;100.00
84308;BME280;74486;52.070;5.128;2024-02-16T12:09:56;101449.78;;;11.19;100.00
84308;BME280;74486;52.070;5.128;2024-02-16T12:12:22;101448.84;;;11.17;100.00
84308;BME280;74486;52.070;5.128;2024-02-16T12:14:47;101450.69;;;11.19;100.00
84308;BME280;74486;52.070;5.128;2024-02-16T12:17:14;101459.44;;;11.20;100.00
84308;BME280;74486;52.070;5.128;2024-02-16T12:19:44;101461.25;;;11.21;100.00
84308;BME280;74486;52.070;5.128;2024-02-16T12:22:10;101463.97;;;11.22;100.00
84308;BME280;74486;52.070;5.128;2024-02-16T12:24:35;101461.16;;;11.19;100.00
84308;BME280;74486;52.070;5.128;2024-02-16T12:27:01;101471.22;;;11.12;100.00
84308;BME280;74486;52.070;5.128;2024-02-16T12:29:26;101472.03;;;11.11;100.00
84308;BME280;74486;52.070;5.128;2024-02-16T12:31:52;101469.91;;;11.20;100.00
84308;BME280;74486;52.070;5.128;2024-02-16T12:34:17;101468.34;;;11.23;100.00
84308;BME280;74486;52.070;5.128;2024-02-16T12:36:44;101479.91;;;11.27;100.00
84308;BME280;74486;52.070;5.128;2024-02-16T12:39:10;101489.47;;;11.26;100.00